createdAt,value
2018-01-23T01:07:31.267Z,55.60
2018-01-23T01:09:59.605Z,51.33
2018-01-23T01:12:27.122Z,56.40
2018-01-23T01:14:54.632Z,52.50
2018-01-23T01:17:22.137Z,48.57
2018-01-23T01:19:49.655Z,52.20
2018-01-23T01:22:17.168Z,55.50
2018-01-23T01:24:44.688Z,50.20
2018-01-23T01:27:12.205Z,57.80
2018-01-23T01:29:39.719Z,53.77
2018-01-23T01:32:07.236Z,54.83
2018-01-23T01:34:34.750Z,54.13
2018-01-23T01:37:02.273Z,51.20
2018-01-23T01:39:29.777Z,61.60
2018-01-23T01:41:57.288Z,54.70
2018-01-23T01:44:24.802Z,55.87
2018-01-23T01:46:52.315Z,58.37
2018-01-23T01:49:19.832Z,61.43
2018-01-23T01:51:47.348Z,59.57
2018-01-23T01:54:14.867Z,59.13
2018-01-23T01:56:42.383Z,59.90
2018-01-23T01:59:10.943Z,59.23
2018-01-23T02:01:38.472Z,61.70
2018-01-23T02:04:05.993Z,64.20
2018-01-23T02:06:33.533Z,67.03
2018-01-23T02:09:01.088Z,61.23
2018-01-23T02:11:28.606Z,64.90
2018-01-23T02:13:56.122Z,66.33
2018-01-23T02:16:23.700Z,58.90
2018-01-23T02:18:51.211Z,65.73
2018-01-23T02:21:18.746Z,64.27
2018-01-23T02:23:46.260Z,65.47
2018-01-23T02:26:13.790Z,66.60
2018-01-23T02:28:41.312Z,67.63
2018-01-23T02:31:08.824Z,70.70
2018-01-23T02:33:36.359Z,71.43
2018-01-23T02:36:03.890Z,70.87
2018-01-23T02:38:31.410Z,73.20
2018-01-23T02:40:58.939Z,73.77
2018-01-23T02:43:26.455Z,77.00
2018-01-23T02:45:53.986Z,77.93
2018-01-23T02:48:21.503Z,73.77
2018-01-23T02:50:49.018Z,76.00
2018-01-23T02:53:16.546Z,76.23
2018-01-23T02:55:44.069Z,82.53
2018-01-23T02:58:11.585Z,84.53
2018-01-23T03:00:39.111Z,87.37
2018-01-23T03:03:06.630Z,90.17
2018-01-23T03:05:34.149Z,77.80
2018-01-23T03:08:01.684Z,81.60
2018-01-23T03:10:29.221Z,93.70
2018-01-23T03:12:56.738Z,90.40
2018-01-23T03:15:24.261Z,90.40
2018-01-23T03:17:51.793Z,85.00
2018-01-23T03:20:19.304Z,88.77
2018-01-23T03:22:46.824Z,88.07
2018-01-23T03:25:14.371Z,94.87
2018-01-23T03:27:41.889Z,94.80
2018-01-23T03:30:09.417Z,98.30
2018-01-23T03:32:36.951Z,88.37
2018-01-23T03:35:04.469Z,93.10
2018-01-23T03:37:31.993Z,99.93
2018-01-23T03:39:59.525Z,95.63
2018-01-23T03:42:27.036Z,82.27
2018-01-23T03:44:54.557Z,95.20
2018-01-23T03:47:22.065Z,82.33
2018-01-23T03:49:49.607Z,83.27
2018-01-23T03:52:17.125Z,88.37
2018-01-23T03:54:44.651Z,91.70
2018-01-23T03:57:12.165Z,84.47
2018-01-23T03:59:39.685Z,79.43
2018-01-23T04:02:07.210Z,85.30
2018-01-23T04:04:34.732Z,78.17
2018-01-23T04:07:02.254Z,78.27
2018-01-23T04:09:29.780Z,76.80
2018-01-23T04:11:57.297Z,85.07
2018-01-23T04:14:24.814Z,90.90
2018-01-23T04:16:52.339Z,95.60
2018-01-23T04:19:19.864Z,87.77
2018-01-23T04:21:47.380Z,91.67
2018-01-23T04:24:14.912Z,87.07
2018-01-23T04:26:42.441Z,84.83
2018-01-23T04:29:09.964Z,81.33
2018-01-23T04:31:37.495Z,82.57
2018-01-23T04:34:05.055Z,82.50
2018-01-23T04:36:32.581Z,88.10
2018-01-23T04:39:00.106Z,95.90
2018-01-23T04:41:27.634Z,88.20
2018-01-23T04:43:55.166Z,84.23
2018-01-23T04:46:22.690Z,84.57
2018-01-23T04:48:50.239Z,84.93
2018-01-23T04:51:17.773Z,81.80
2018-01-23T04:53:45.297Z,83.47
2018-01-23T04:56:12.816Z,81.30
2018-01-23T04:58:40.344Z,80.60
2018-01-23T05:01:07.881Z,79.30
2018-01-23T05:03:35.392Z,77.97
2018-01-23T05:06:02.909Z,81.53
2018-01-23T05:08:30.431Z,78.63
2018-01-23T05:10:57.952Z,83.77
2018-01-23T05:13:25.470Z,81.17
2018-01-23T05:15:52.985Z,84.23
2018-01-23T05:18:20.520Z,83.43
2018-01-23T05:20:48.041Z,85.87
2018-01-23T05:23:15.565Z,87.33
2018-01-23T05:25:43.095Z,78.80
2018-01-23T05:28:10.632Z,68.33
2018-01-23T05:30:38.155Z,69.50
2018-01-23T05:33:05.707Z,75.70
2018-01-23T05:35:33.236Z,78.83
2018-01-23T05:38:00.757Z,75.67
2018-01-23T05:40:28.280Z,78.23
2018-01-23T05:42:55.811Z,66.20
2018-01-23T05:45:23.363Z,78.60
2018-01-23T05:47:50.890Z,71.40
2018-01-23T05:50:18.421Z,82.13
2018-01-23T05:52:45.935Z,77.27
2018-01-23T05:55:13.464Z,72.97
2018-01-23T05:57:40.989Z,71.23
2018-01-23T06:00:08.516Z,75.33
2018-01-23T06:02:36.050Z,72.40
2018-01-23T06:05:03.572Z,87.43
2018-01-23T06:07:31.098Z,73.90
2018-01-23T06:09:58.627Z,68.73
2018-01-23T06:12:26.152Z,73.17
2018-01-23T06:14:53.675Z,67.73
2018-01-23T06:17:21.202Z,73.33
2018-01-23T06:19:48.730Z,72.80
2018-01-23T06:22:16.247Z,76.17
2018-01-23T06:24:43.777Z,69.13
2018-01-23T06:27:11.294Z,74.87
2018-01-23T06:29:38.832Z,74.27
2018-01-23T06:32:06.357Z,68.17
2018-01-23T06:34:33.886Z,78.77
2018-01-23T06:37:01.403Z,81.93
2018-01-23T06:39:28.932Z,78.33
2018-01-23T06:41:56.454Z,70.37
2018-01-23T06:44:23.980Z,81.77
2018-01-23T06:46:51.506Z,79.23
2018-01-23T06:49:19.029Z,83.87
2018-01-23T06:51:46.556Z,80.97
2018-01-23T06:54:14.168Z,76.23
2018-01-23T06:56:41.714Z,79.37
2018-01-23T06:59:09.234Z,83.23
2018-01-23T07:01:36.768Z,78.33
2018-01-23T07:04:04.289Z,65.70
2018-01-23T07:06:31.819Z,74.00
2018-01-23T07:08:59.342Z,80.80
2018-01-23T07:11:26.868Z,74.47
2018-01-23T07:13:54.388Z,76.40
2018-01-23T07:16:21.915Z,72.37
2018-01-23T07:18:49.429Z,76.83
2018-01-23T07:21:16.945Z,68.20
2018-01-23T07:23:44.460Z,71.83
2018-01-23T07:26:11.982Z,70.83
2018-01-23T07:28:39.516Z,70.67
2018-01-23T07:31:07.030Z,66.67
2018-01-23T07:33:34.550Z,67.53
2018-01-23T07:36:02.072Z,72.30
2018-01-23T07:38:29.655Z,71.93
2018-01-23T07:40:57.162Z,72.87
2018-01-23T07:43:24.694Z,67.00
2018-01-23T07:45:52.229Z,70.63
2018-01-23T07:48:19.741Z,66.47
2018-01-23T07:50:47.271Z,67.63
2018-01-23T07:53:14.801Z,57.20
2018-01-23T07:55:42.326Z,60.50
2018-01-23T07:58:09.843Z,57.67
2018-01-23T08:00:37.413Z,59.70
2018-01-23T08:03:04.924Z,55.93
2018-01-23T08:05:32.441Z,53.97
2018-01-23T08:07:59.956Z,53.87
2018-01-23T08:10:27.473Z,58.17
2018-01-23T08:12:54.997Z,60.90
2018-01-23T08:15:22.521Z,52.10
2018-01-23T08:17:50.050Z,55.87
2018-01-23T08:20:17.588Z,62.17
2018-01-23T08:22:45.105Z,59.17
2018-01-23T08:25:12.616Z,56.43
2018-01-23T08:27:40.129Z,55.10
2018-01-23T08:30:07.647Z,58.33
2018-01-23T08:32:35.167Z,56.07
2018-01-23T08:35:02.689Z,52.77
2018-01-23T08:37:30.211Z,54.80
2018-01-23T08:39:57.730Z,53.93
2018-01-23T08:42:25.309Z,52.63
2018-01-23T08:44:52.829Z,52.13
2018-01-23T08:47:20.358Z,58.13
2018-01-23T08:49:47.882Z,52.53
2018-01-23T08:52:15.408Z,53.90
2018-01-23T08:54:42.929Z,50.97
2018-01-23T08:57:10.444Z,50.63
2018-01-23T08:59:37.963Z,47.80
2018-01-23T09:02:05.505Z,49.23
2018-01-23T09:04:33.226Z,48.33
2018-01-23T09:07:00.786Z,50.57
2018-01-23T09:09:28.317Z,52.20
2018-01-23T09:11:55.870Z,47.17
2018-01-23T09:14:23.420Z,48.10
2018-01-23T09:16:51.051Z,46.73
2018-01-23T09:19:18.598Z,57.60
2018-01-23T09:21:46.177Z,53.10
2018-01-23T09:24:13.698Z,56.23
2018-01-23T09:26:44.096Z,51.37
2018-01-23T09:29:11.676Z,55.07
2018-01-23T09:31:39.335Z,57.67
2018-01-23T09:34:07.885Z,53.27
2018-01-23T09:36:35.417Z,50.17
2018-01-23T09:39:02.977Z,60.57
2018-01-23T09:41:30.512Z,71.43
2018-01-23T09:43:58.053Z,68.27
2018-01-23T09:46:25.591Z,78.23
2018-01-23T09:48:53.117Z,72.60
2018-01-23T09:51:20.660Z,78.40
2018-01-23T09:53:48.216Z,80.37
2018-01-23T09:56:15.794Z,76.03
2018-01-23T09:58:43.324Z,84.17
2018-01-23T10:01:10.845Z,91.10
2018-01-23T10:03:38.490Z,75.80
2018-01-23T10:06:06.030Z,76.97
2018-01-23T10:08:33.553Z,81.73
2018-01-23T10:11:01.073Z,75.97
2018-01-23T10:13:28.584Z,72.80
2018-01-23T10:15:56.108Z,67.90
2018-01-23T10:18:23.660Z,69.60
2018-01-23T10:20:51.181Z,69.30
2018-01-23T10:23:18.709Z,72.30
2018-01-23T10:25:46.233Z,70.27
2018-01-23T10:28:13.761Z,78.80
2018-01-23T10:30:41.278Z,73.80
2018-01-23T10:33:08.788Z,81.10
2018-01-23T10:35:36.310Z,81.40
2018-01-23T10:38:03.842Z,77.00
2018-01-23T10:40:31.371Z,79.47
2018-01-23T10:42:58.901Z,83.37
2018-01-23T10:45:26.521Z,80.70
2018-01-23T10:47:54.052Z,79.00
2018-01-23T10:50:21.578Z,77.53
2018-01-23T10:52:49.104Z,71.97
2018-01-23T10:55:16.673Z,80.80
2018-01-23T10:57:44.194Z,74.37
2018-01-23T11:00:11.718Z,73.17
2018-01-23T11:02:39.250Z,72.60
2018-01-23T11:05:06.806Z,75.37
2018-01-23T11:07:34.326Z,68.87
2018-01-23T11:10:01.850Z,69.80
2018-01-23T11:12:29.373Z,64.77
2018-01-23T11:14:56.901Z,76.33
2018-01-23T11:17:24.434Z,69.03
2018-01-23T11:19:51.958Z,60.17
2018-01-23T11:22:19.476Z,64.77
2018-01-23T11:24:47.775Z,61.63
2018-01-23T11:27:15.313Z,59.87
2018-01-23T11:29:42.840Z,60.20
2018-01-23T11:32:10.365Z,59.17
2018-01-23T11:34:38.000Z,56.70
2018-01-23T11:37:05.534Z,59.67
2018-01-23T11:39:33.095Z,55.00
2018-01-23T11:42:00.641Z,52.73
2018-01-23T11:44:28.161Z,50.00
2018-01-23T11:46:55.699Z,50.47
2018-01-23T11:49:23.219Z,51.27
2018-01-23T11:51:50.745Z,49.00
2018-01-23T11:54:18.269Z,48.87
2018-01-23T11:56:45.794Z,51.73
2018-01-23T11:59:13.342Z,54.07
2018-01-23T12:01:40.860Z,55.03
2018-01-23T12:04:08.422Z,57.23
2018-01-23T12:06:35.957Z,55.70
2018-01-23T12:09:03.496Z,61.57
2018-01-23T12:11:31.032Z,59.37
2018-01-23T12:13:58.548Z,65.00
2018-01-23T12:16:26.080Z,62.47
2018-01-23T12:18:53.598Z,60.53
2018-01-23T12:21:21.119Z,62.90
2018-01-23T12:23:48.645Z,70.33
2018-01-23T12:26:16.184Z,60.10
2018-01-23T12:28:43.737Z,63.23
2018-01-23T12:31:11.254Z,53.63
2018-01-23T12:33:38.777Z,56.37
2018-01-23T12:36:06.315Z,64.00
2018-01-23T12:38:33.841Z,58.80
2018-01-23T12:41:01.360Z,58.10
2018-01-23T12:43:28.889Z,54.17
2018-01-23T12:45:56.408Z,53.67
2018-01-23T12:48:23.939Z,58.53
2018-01-23T12:50:51.467Z,54.10
2018-01-23T12:53:18.993Z,54.33
2018-01-23T12:55:46.530Z,53.93
2018-01-23T12:58:14.046Z,50.83
2018-01-23T13:00:41.570Z,50.50
2018-01-23T13:03:09.088Z,55.97
2018-01-23T13:05:36.606Z,54.20
2018-01-23T13:08:04.116Z,55.80
2018-01-23T13:10:31.629Z,47.37
2018-01-23T13:12:59.151Z,52.67
2018-01-23T13:15:26.686Z,55.57
2018-01-23T13:17:54.217Z,51.20
2018-01-23T13:20:21.734Z,51.30
2018-01-23T13:22:49.257Z,54.00
2018-01-23T13:25:16.777Z,54.23
2018-01-23T13:27:44.322Z,58.10
2018-01-23T13:30:11.844Z,56.43
2018-01-23T13:32:39.374Z,53.40
2018-01-23T13:35:06.903Z,52.67
2018-01-23T13:37:34.437Z,53.40
2018-01-23T13:40:01.959Z,52.27
2018-01-23T13:42:29.484Z,55.40
2018-01-23T13:44:57.001Z,57.00
2018-01-23T13:47:24.525Z,53.50
2018-01-23T13:49:52.047Z,56.63
2018-01-23T13:52:19.572Z,58.43
2018-01-23T13:54:47.081Z,59.73
2018-01-23T13:57:14.592Z,55.67
2018-01-23T13:59:42.112Z,58.97
2018-01-23T14:02:09.637Z,60.07
2018-01-23T14:04:37.165Z,55.13
2018-01-23T14:07:04.687Z,60.23
2018-01-23T14:09:32.205Z,57.13
2018-01-23T14:11:59.721Z,51.30
2018-01-23T14:14:27.247Z,51.70
2018-01-23T14:16:54.776Z,56.20
2018-01-23T14:19:22.308Z,60.83
2018-01-23T14:21:49.825Z,53.10
2018-01-23T14:24:17.348Z,53.73
2018-01-23T14:26:44.865Z,53.77
2018-01-23T14:29:12.389Z,56.70
2018-01-23T14:31:39.916Z,54.40
2018-01-23T14:34:07.438Z,51.47
2018-01-23T14:36:34.953Z,55.47
2018-01-23T14:39:02.461Z,53.10
2018-01-23T14:41:29.974Z,57.00
2018-01-23T14:43:57.502Z,49.50
2018-01-23T14:46:25.018Z,54.40
2018-01-23T14:48:52.539Z,58.97
2018-01-23T14:51:20.066Z,56.90
2018-01-23T14:53:47.587Z,56.17
2018-01-23T14:56:15.104Z,52.10
2018-01-23T14:58:42.622Z,50.40
2018-01-23T15:01:10.146Z,55.53
2018-01-23T15:03:37.661Z,60.03
2018-01-23T15:06:05.188Z,54.93
2018-01-23T15:08:32.704Z,53.97
2018-01-23T15:11:00.217Z,52.17
2018-01-23T15:13:27.734Z,56.00
2018-01-23T15:15:55.260Z,55.73
2018-01-23T15:18:22.792Z,57.73
2018-01-23T15:20:50.318Z,59.57
2018-01-23T15:23:17.836Z,58.13
2018-01-23T15:25:45.364Z,64.77
2018-01-23T15:28:12.890Z,59.30
2018-01-23T15:30:40.417Z,59.77
2018-01-23T15:33:07.940Z,62.33
2018-01-23T15:35:35.467Z,57.97
2018-01-23T15:38:02.992Z,59.43
2018-01-23T15:40:30.525Z,54.80
2018-01-23T15:42:58.049Z,59.73
2018-01-23T15:45:25.566Z,60.13
2018-01-23T15:47:53.133Z,59.27
2018-01-23T15:50:20.634Z,62.07
2018-01-23T15:52:48.148Z,57.77
2018-01-23T15:55:15.676Z,56.60
2018-01-23T15:57:43.198Z,62.10
2018-01-23T16:00:10.728Z,62.87
2018-01-23T16:02:38.254Z,63.93
2018-01-23T16:05:05.776Z,61.60
2018-01-23T16:07:33.306Z,63.90
2018-01-23T16:10:00.834Z,61.10
2018-01-23T16:12:28.359Z,59.73
2018-01-23T16:14:55.882Z,59.67
2018-01-23T16:17:23.431Z,58.00
2018-01-23T16:19:50.968Z,71.47
2018-01-23T16:22:18.490Z,62.90
2018-01-23T16:24:46.019Z,65.63
2018-01-23T16:27:13.541Z,59.80
2018-01-23T16:29:41.064Z,60.93
2018-01-23T16:32:08.599Z,66.17
2018-01-23T16:34:36.150Z,64.43
2018-01-23T16:37:03.684Z,68.57
2018-01-23T16:39:31.212Z,65.07
2018-01-23T16:41:58.732Z,60.53
2018-01-23T16:44:26.253Z,64.80
2018-01-23T16:46:53.787Z,75.00
2018-01-23T16:49:21.314Z,63.50
2018-01-23T16:51:48.836Z,66.07
2018-01-23T16:54:16.353Z,62.93
2018-01-23T16:56:43.884Z,64.00
2018-01-23T16:59:11.406Z,66.77
2018-01-23T17:01:38.934Z,65.50
2018-01-23T17:04:06.469Z,64.40
2018-01-23T17:06:34.013Z,66.03
2018-01-23T17:09:01.538Z,66.30
2018-01-23T17:11:29.069Z,61.83
2018-01-23T17:13:56.599Z,59.70
2018-01-23T17:16:24.117Z,60.20
2018-01-23T17:18:51.651Z,63.57
2018-01-23T17:21:19.169Z,67.07
2018-01-23T17:23:46.698Z,61.70
2018-01-23T17:26:14.224Z,55.37
2018-01-23T17:28:41.762Z,61.30
2018-01-23T17:31:09.279Z,61.50
2018-01-23T17:33:36.820Z,60.93
2018-01-23T17:36:04.354Z,60.87
2018-01-23T17:38:31.883Z,61.43
2018-01-23T17:40:59.411Z,57.13
2018-01-23T17:43:26.959Z,62.93
2018-01-23T17:45:54.540Z,56.83
2018-01-23T17:48:22.053Z,54.23
2018-01-23T17:50:49.580Z,64.17
2018-01-23T17:53:17.103Z,55.43
2018-01-23T17:55:44.637Z,50.67
2018-01-23T17:58:12.201Z,63.30
2018-01-23T18:00:39.715Z,56.17
2018-01-23T18:03:07.236Z,57.03
2018-01-23T18:05:34.757Z,56.40
2018-01-23T18:08:02.277Z,58.87
2018-01-23T18:10:29.805Z,56.67
2018-01-23T18:12:57.330Z,50.57
2018-01-23T18:15:24.854Z,55.23
2018-01-23T18:17:52.377Z,54.73
2018-01-23T18:20:19.908Z,49.53
2018-01-23T18:22:47.454Z,56.50
2018-01-23T18:25:15.652Z,54.50
2018-01-23T18:27:43.173Z,47.53
2018-01-23T18:30:10.689Z,51.43
2018-01-23T18:32:38.228Z,51.03
2018-01-23T18:35:05.755Z,48.23
2018-01-23T18:37:33.293Z,53.73
2018-01-23T18:40:00.814Z,52.90
2018-01-23T18:42:28.352Z,58.17
2018-01-23T18:44:55.887Z,51.43
2018-01-23T18:47:23.427Z,46.13
2018-01-23T18:49:50.948Z,55.30
2018-01-23T18:52:18.471Z,52.40
2018-01-23T18:54:46.001Z,44.70
2018-01-23T18:57:13.520Z,49.97
2018-01-23T18:59:41.057Z,47.87
2018-01-23T19:02:08.680Z,47.63
2018-01-23T19:04:36.269Z,54.37
2018-01-23T19:07:03.794Z,42.93
2018-01-23T19:09:41.969Z,42.50
2018-01-23T19:12:09.526Z,40.13
2018-01-23T19:14:37.153Z,44.67
2018-01-23T19:17:04.680Z,42.70
2018-01-23T19:19:32.204Z,44.33
2018-01-23T19:21:59.727Z,38.13
2018-01-23T19:24:27.259Z,41.33
2018-01-23T19:26:54.780Z,41.07
2018-01-23T19:29:22.308Z,42.27
2018-01-23T19:31:49.838Z,39.77
2018-01-23T19:34:17.352Z,42.17
2018-01-23T19:36:44.889Z,39.70
2018-01-23T19:39:12.417Z,40.33
2018-01-23T19:41:39.937Z,35.33
2018-01-23T19:44:07.455Z,42.23
2018-01-23T19:46:34.986Z,37.23
2018-01-23T19:49:02.513Z,41.47
2018-01-23T19:51:30.039Z,34.93
2018-01-23T19:53:57.564Z,35.00
2018-01-23T19:56:25.090Z,35.40
2018-01-23T19:58:52.685Z,33.70
2018-01-23T20:01:20.196Z,35.70
2018-01-23T20:03:47.711Z,36.03
2018-01-23T20:06:15.224Z,36.83
2018-01-23T20:08:42.755Z,35.47
2018-01-23T20:11:10.346Z,37.30
2018-01-23T20:13:37.893Z,35.70
2018-01-23T20:16:05.413Z,32.07
2018-01-23T20:18:32.931Z,32.63
2018-01-23T20:21:00.465Z,30.93
2018-01-23T20:23:28.014Z,29.83
2018-01-23T20:25:55.529Z,35.17
2018-01-23T20:28:23.065Z,31.63
2018-01-23T20:30:50.590Z,30.00
2018-01-23T20:33:18.112Z,33.33
2018-01-23T20:35:45.641Z,31.97
2018-01-23T20:38:13.170Z,30.03
2018-01-23T20:40:40.690Z,31.30
2018-01-23T20:43:08.203Z,30.43
2018-01-23T20:45:35.731Z,29.90
2018-01-23T20:48:03.265Z,35.00
2018-01-23T20:50:30.791Z,27.47
2018-01-23T20:52:58.306Z,30.67
2018-01-23T20:55:25.844Z,30.43
2018-01-23T20:57:53.360Z,28.47
2018-01-23T21:00:20.894Z,24.47
2018-01-23T21:02:48.420Z,27.63
2018-01-23T21:05:16.041Z,25.50
2018-01-23T21:07:43.558Z,24.10
2018-01-23T21:10:11.094Z,33.63
2018-01-23T21:12:38.910Z,26.67
2018-01-23T21:15:06.467Z,27.13
2018-01-23T21:17:33.994Z,24.97
2018-01-23T21:20:01.523Z,27.00
2018-01-23T21:22:29.048Z,28.33
2018-01-23T21:24:56.562Z,24.03
2018-01-23T21:27:24.085Z,21.73
2018-01-23T21:29:51.609Z,23.30
2018-01-23T21:32:19.139Z,24.00
2018-01-23T21:34:46.662Z,26.10
2018-01-23T21:37:14.198Z,22.97
2018-01-23T21:39:41.728Z,21.63
2018-01-23T21:42:09.248Z,19.93
2018-01-23T21:44:36.773Z,22.63
2018-01-23T21:47:04.297Z,21.00
2018-01-23T21:49:31.826Z,20.97
2018-01-23T21:51:59.354Z,19.43
2018-01-23T21:54:26.883Z,20.33
2018-01-23T21:56:54.405Z,18.50
2018-01-23T21:59:21.922Z,21.37
2018-01-23T22:01:49.444Z,18.77
2018-01-23T22:04:16.968Z,21.67
2018-01-23T22:06:44.486Z,25.27
2018-01-23T22:09:12.023Z,24.57
2018-01-23T22:11:39.570Z,23.40
2018-01-23T22:14:07.092Z,20.30
2018-01-23T22:16:34.608Z,18.70
2018-01-23T22:19:02.146Z,16.63
2018-01-23T22:21:29.698Z,17.33
2018-01-23T22:23:57.212Z,18.33
2018-01-23T22:26:24.786Z,19.97
2018-01-23T22:28:52.284Z,17.43
2018-01-23T22:31:19.803Z,17.00
2018-01-23T22:33:47.370Z,17.23
2018-01-23T22:36:14.891Z,13.53
2018-01-23T22:38:42.410Z,15.37
2018-01-23T22:41:09.947Z,17.20
2018-01-23T22:43:37.477Z,18.77
2018-01-23T22:46:04.991Z,21.27
2018-01-23T22:48:32.520Z,16.73
2018-01-23T22:51:00.049Z,17.48
2018-01-23T22:53:27.556Z,16.50
2018-01-23T22:55:55.067Z,16.17
2018-01-23T22:58:22.590Z,15.87
2018-01-23T23:00:50.125Z,18.17
2018-01-23T23:03:17.641Z,15.17
2018-01-23T23:05:45.153Z,15.73
2018-01-23T23:08:12.682Z,16.30
2018-01-23T23:10:40.203Z,13.90
2018-01-23T23:13:07.723Z,17.63
2018-01-23T23:15:35.232Z,18.27
2018-01-23T23:18:02.749Z,14.63
2018-01-23T23:20:30.277Z,13.90
2018-01-23T23:22:57.795Z,14.50
2018-01-23T23:25:25.308Z,17.93
2018-01-23T23:27:52.825Z,16.97
2018-01-23T23:30:20.372Z,13.17
2018-01-23T23:32:47.918Z,15.97
2018-01-23T23:35:15.442Z,15.30
2018-01-23T23:37:42.967Z,15.17
2018-01-23T23:40:10.480Z,17.60
2018-01-23T23:42:37.997Z,15.93
2018-01-23T23:45:05.507Z,15.87
2018-01-23T23:47:33.038Z,15.20
2018-01-23T23:50:00.556Z,19.00
2018-01-23T23:52:28.069Z,15.97
2018-01-23T23:54:55.605Z,15.33
2018-01-23T23:57:23.122Z,20.20
2018-01-23T23:59:50.634Z,15.63
